createdAt,value
2022-08-17T00:01:51.879Z,20.25
2022-08-17T00:04:25.991Z,20.21
2022-08-17T00:07:01.827Z,20.17
2022-08-17T00:09:44.885Z,20.14
2022-08-17T00:12:42.083Z,20.11
2022-08-17T00:15:15.984Z,20.07
2022-08-17T00:19:00.394Z,20.05
2022-08-17T00:21:10.582Z,20.04
2022-08-17T00:23:49.522Z,20.04
2022-08-17T00:26:43.442Z,20.04
2022-08-17T00:29:19.861Z,20.03
2022-08-17T00:31:53.266Z,20.02
2022-08-17T00:34:32.403Z,20.01
2022-08-17T00:37:03.970Z,19.97
2022-08-17T00:39:34.024Z,19.97
2022-08-17T00:42:15.185Z,19.96
2022-08-17T00:44:49.508Z,19.99
2022-08-17T00:47:16.997Z,20.02
2022-08-17T00:49:53.676Z,20.03
2022-08-17T00:52:27.191Z,20.03
2022-08-17T00:55:00.937Z,20.03
2022-08-17T00:57:40.862Z,20.04
2022-08-17T01:00:26.026Z,20.05
2022-08-17T01:03:11.941Z,20.02
2022-08-17T01:05:43.670Z,19.98
2022-08-17T01:08:17.686Z,19.91
2022-08-17T01:11:02.016Z,19.84
2022-08-17T01:13:57.985Z,19.78
2022-08-17T01:16:52.145Z,19.71
2022-08-17T01:19:33.893Z,19.66
2022-08-17T01:22:13.804Z,19.63
2022-08-17T01:24:54.554Z,19.60
2022-08-17T01:27:31.107Z,19.57
2022-08-17T01:30:57.975Z,19.55
2022-08-17T01:33:03.998Z,19.52
2022-08-17T01:35:33.404Z,19.50
2022-08-17T01:38:06.289Z,19.48
2022-08-17T01:40:57.676Z,19.47
2022-08-17T01:43:39.544Z,19.45
2022-08-17T01:46:13.976Z,19.47
2022-08-17T01:48:46.924Z,19.49
2022-08-17T01:51:35.419Z,19.48
2022-08-17T01:54:32.158Z,19.47
2022-08-17T01:56:59.334Z,19.42
2022-08-17T01:59:29.758Z,19.38
2022-08-17T02:02:03.175Z,19.36
2022-08-17T02:04:37.167Z,19.34
2022-08-17T02:07:12.158Z,19.30
2022-08-17T02:09:43.784Z,19.26
2022-08-17T02:12:39.362Z,19.22
2022-08-17T02:15:28.774Z,19.20
2022-08-17T02:18:04.260Z,19.17
2022-08-17T02:20:50.610Z,19.15
2022-08-17T02:23:22.961Z,19.12
2022-08-17T02:26:25.551Z,19.08
2022-08-17T02:29:01.738Z,19.05
2022-08-17T02:31:37.578Z,19.06
2022-08-17T02:34:07.971Z,19.03
2022-08-17T02:36:42.949Z,19.01
2022-08-17T02:39:32.643Z,18.98
2022-08-17T02:42:09.676Z,18.96
2022-08-17T02:45:03.678Z,18.94
2022-08-17T02:47:47.173Z,18.90
2022-08-17T02:50:26.810Z,18.88
2022-08-17T02:53:02.885Z,18.86
2022-08-17T02:55:46.568Z,18.85
2022-08-17T02:58:17.638Z,18.83
2022-08-17T03:01:10.447Z,18.81
2022-08-17T03:03:52.445Z,18.79
2022-08-17T03:06:31.320Z,18.79
2022-08-17T03:09:18.798Z,18.78
2022-08-17T03:11:51.487Z,18.77
2022-08-17T03:14:32.129Z,18.73
2022-08-17T03:17:10.892Z,18.72
2022-08-17T03:19:43.277Z,18.74
2022-08-17T03:22:35.877Z,18.77
2022-08-17T03:25:10.574Z,18.78
2022-08-17T03:27:44.672Z,18.77
2022-08-17T03:30:22.192Z,18.72
2022-08-17T03:32:56.679Z,18.67
2022-08-17T03:35:29.830Z,18.61
2022-08-17T03:38:26.316Z,18.55
2022-08-17T03:40:59.744Z,18.53
2022-08-17T03:43:33.152Z,18.52
2022-08-17T03:46:32.457Z,18.53
2022-08-17T03:49:29.769Z,18.51
2022-08-17T03:52:21.262Z,18.48
2022-08-17T03:55:10.076Z,18.45
2022-08-17T03:57:40.220Z,18.45
2022-08-17T04:00:07.876Z,18.47
2022-08-17T04:02:51.555Z,18.48
2022-08-17T04:05:35.607Z,18.52
2022-08-17T04:08:15.756Z,18.56
2022-08-17T04:10:51.593Z,18.59
2022-08-17T04:13:25.587Z,18.61
2022-08-17T04:15:58.788Z,18.61
2022-08-17T04:18:29.008Z,18.58
2022-08-17T04:20:56.311Z,18.59
2022-08-17T04:23:33.298Z,18.61
2022-08-17T04:26:11.826Z,18.64
2022-08-17T04:29:54.779Z,18.68
2022-08-17T04:33:04.769Z,18.72
2022-08-17T04:35:36.931Z,18.78
2022-08-17T04:38:09.822Z,18.86
2022-08-17T04:41:19.030Z,18.93
2022-08-17T04:43:57.978Z,19.00
2022-08-17T04:46:41.043Z,19.09
2022-08-17T04:49:55.274Z,19.17
2022-08-17T04:52:43.336Z,19.29
2022-08-17T04:55:24.141Z,19.39
2022-08-17T04:57:54.535Z,19.51
2022-08-17T05:00:27.820Z,19.62
2022-08-17T05:03:06.191Z,19.72
2022-08-17T05:05:49.373Z,19.83
2022-08-17T05:08:48.290Z,19.96
2022-08-17T05:11:21.658Z,20.10
2022-08-17T05:14:09.153Z,20.25
2022-08-17T05:16:45.115Z,20.44
2022-08-17T05:19:26.953Z,20.62
2022-08-17T05:22:14.806Z,20.80
2022-08-17T05:24:53.802Z,20.95
2022-08-17T05:27:35.471Z,21.09
2022-08-17T05:30:06.698Z,21.25
2022-08-17T05:32:40.327Z,21.45
2022-08-17T05:35:12.909Z,21.66
2022-08-17T05:37:40.443Z,21.91
2022-08-17T05:40:07.977Z,22.40
2022-08-17T05:42:37.786Z,22.75
2022-08-17T05:45:32.142Z,23.02
2022-08-17T05:48:18.651Z,23.13
2022-08-17T05:51:13.552Z,23.19
2022-08-17T05:53:52.481Z,23.47
2022-08-17T05:56:43.580Z,23.95
2022-08-17T05:59:37.974Z,24.41
2022-08-17T06:03:20.320Z,24.69
2022-08-17T06:06:27.259Z,25.35
2022-08-17T06:09:14.827Z,25.80
2022-08-17T06:12:05.390Z,25.97
2022-08-17T06:14:45.207Z,25.77
2022-08-17T06:17:21.600Z,25.59
2022-08-17T06:20:02.382Z,25.51
2022-08-17T06:22:44.373Z,25.75
2022-08-17T06:25:23.321Z,26.05
2022-08-17T06:27:56.601Z,26.40
2022-08-17T06:30:27.835Z,26.74
2022-08-17T06:33:23.453Z,26.99
2022-08-17T06:36:15.799Z,27.17
2022-08-17T06:39:05.787Z,27.21
2022-08-17T06:42:02.474Z,27.09
2022-08-17T06:44:52.052Z,27.04
2022-08-17T06:47:35.778Z,26.68
2022-08-17T06:50:37.199Z,26.41
2022-08-17T06:53:29.792Z,26.45
2022-08-17T06:56:53.919Z,26.61
2022-08-17T06:59:54.204Z,26.65
2022-08-17T07:02:52.536Z,26.77
2022-08-17T07:05:36.246Z,27.05
2022-08-17T07:08:35.199Z,27.16
2022-08-17T07:11:15.061Z,27.28
2022-08-17T07:13:51.736Z,27.41
2022-08-17T07:16:33.660Z,27.59
2022-08-17T07:19:26.103Z,27.68
2022-08-17T07:22:17.070Z,27.76
2022-08-17T07:25:02.479Z,28.03
2022-08-17T07:27:45.450Z,28.20
2022-08-17T07:30:55.295Z,28.09
2022-08-17T07:33:39.112Z,28.15
2022-08-17T07:36:35.838Z,28.42
2022-08-17T07:39:11.262Z,28.56
2022-08-17T07:41:57.852Z,28.61
2022-08-17T07:44:32.091Z,28.94
2022-08-17T07:47:35.006Z,29.07
2022-08-17T07:50:26.992Z,29.06
2022-08-17T07:53:26.766Z,29.09
2022-08-17T08:01:22.070Z,29.20
2022-08-17T08:05:08.828Z,29.17
2022-08-17T08:08:27.264Z,29.60
2022-08-17T08:11:33.138Z,29.72
2022-08-17T08:14:28.633Z,29.71
2022-08-17T08:17:09.322Z,29.80
2022-08-17T08:19:41.395Z,29.88
2022-08-17T08:22:35.895Z,29.98
2022-08-17T08:25:14.683Z,30.19
2022-08-17T08:27:45.004Z,30.32
2022-08-17T08:30:29.990Z,30.24
2022-08-17T08:33:55.925Z,30.27
2022-08-17T08:37:15.934Z,30.21
2022-08-17T08:40:01.823Z,30.05
2022-08-17T08:42:52.319Z,30.21
2022-08-17T08:45:37.654Z,30.42
2022-08-17T08:48:56.603Z,30.59
2022-08-17T08:51:38.072Z,30.76
2022-08-17T08:54:34.955Z,30.86
2022-08-17T08:57:26.817Z,31.13
2022-08-17T09:00:17.456Z,31.21
2022-08-17T09:03:07.503Z,31.13
2022-08-17T09:06:37.359Z,31.05
2022-08-17T09:09:41.986Z,30.95
2022-08-17T09:12:52.179Z,31.03
2022-08-17T09:15:35.416Z,31.23
2022-08-17T09:19:02.280Z,31.25
2022-08-17T09:21:02.902Z,31.17
2022-08-17T09:23:59.536Z,30.95
2022-08-17T09:26:39.692Z,30.85
2022-08-17T09:29:13.803Z,30.80
2022-08-17T09:31:52.898Z,30.95
2022-08-17T09:34:31.948Z,31.29
2022-08-17T09:37:15.635Z,31.50
2022-08-17T09:39:52.996Z,31.59
2022-08-17T09:42:51.494Z,31.62
2022-08-17T09:45:50.350Z,31.68
2022-08-17T09:48:25.280Z,31.59
2022-08-17T09:51:06.548Z,31.67
2022-08-17T09:53:37.674Z,31.92
2022-08-17T09:56:56.520Z,31.97
2022-08-17T10:00:19.094Z,32.25
2022-08-17T10:03:02.543Z,32.16
2022-08-17T10:05:48.725Z,32.03
2022-08-17T10:08:33.465Z,31.67
2022-08-17T10:11:16.840Z,31.23
2022-08-17T10:14:02.901Z,31.01
2022-08-17T10:17:06.806Z,30.91
2022-08-17T10:20:01.449Z,31.15
2022-08-17T10:23:03.171Z,31.78
2022-08-17T10:25:55.004Z,32.25
2022-08-17T10:28:31.151Z,32.00
2022-08-17T10:31:33.325Z,32.12
2022-08-17T10:34:18.795Z,32.10
2022-08-17T10:36:54.498Z,31.97
2022-08-17T10:39:53.757Z,31.70
2022-08-17T10:42:34.892Z,31.64
2022-08-17T10:45:06.700Z,32.05
2022-08-17T10:48:07.192Z,32.27
2022-08-17T10:50:53.291Z,32.70
2022-08-17T10:53:32.556Z,32.46
2022-08-17T10:56:18.160Z,32.53
2022-08-17T10:58:57.640Z,32.76
2022-08-17T11:01:33.848Z,33.00
2022-08-17T11:04:26.970Z,33.38
2022-08-17T11:07:18.286Z,33.56
2022-08-17T11:10:16.245Z,33.71
2022-08-17T11:13:05.701Z,33.21
2022-08-17T11:16:10.229Z,32.44
2022-08-17T11:19:11.908Z,32.00
2022-08-17T11:22:05.627Z,31.70
2022-08-17T11:24:47.422Z,31.67
2022-08-17T11:27:27.211Z,31.72
2022-08-17T11:30:12.434Z,31.65
2022-08-17T11:32:53.054Z,31.63
2022-08-17T11:35:22.796Z,31.99
2022-08-17T11:38:16.712Z,32.38
2022-08-17T11:41:11.810Z,32.55
2022-08-17T11:44:03.631Z,32.67
2022-08-17T11:47:16.962Z,32.16
2022-08-17T11:50:12.507Z,31.97
2022-08-17T11:52:55.457Z,32.15
2022-08-17T11:55:38.536Z,32.43
2022-08-17T11:58:45.899Z,32.56
2022-08-17T12:01:56.203Z,32.35
2022-08-17T12:04:31.045Z,32.03
2022-08-17T12:07:05.416Z,31.95
2022-08-17T12:09:40.192Z,31.87
2022-08-17T12:12:29.658Z,31.73
2022-08-17T12:15:10.037Z,31.58
2022-08-17T12:17:42.713Z,31.47
2022-08-17T12:20:27.332Z,31.40
2022-08-17T12:23:15.385Z,31.24
2022-08-17T12:25:51.550Z,31.05
2022-08-17T12:28:32.271Z,30.96
2022-08-17T12:31:08.488Z,30.93
2022-08-17T12:33:44.085Z,30.92
2022-08-17T12:36:18.805Z,30.93
2022-08-17T12:39:21.173Z,30.94
2022-08-17T12:42:32.871Z,30.98
2022-08-17T12:45:23.540Z,31.04
2022-08-17T12:48:07.383Z,31.08
2022-08-17T12:50:44.377Z,31.12
2022-08-17T12:53:35.546Z,31.14
2022-08-17T12:56:10.246Z,31.06
2022-08-17T12:58:48.043Z,31.03
2022-08-17T13:01:17.163Z,31.04
2022-08-17T13:03:51.980Z,31.20
2022-08-17T13:06:29.731Z,31.36
2022-08-17T13:09:12.117Z,31.41
2022-08-17T13:11:55.389Z,31.36
2022-08-17T13:14:26.074Z,31.21
2022-08-17T13:16:59.073Z,31.16
2022-08-17T13:19:40.910Z,31.08
2022-08-17T13:22:12.173Z,30.94
2022-08-17T13:25:03.471Z,30.88
2022-08-17T13:27:34.942Z,30.88
2022-08-17T13:30:07.502Z,30.90
2022-08-17T13:32:40.450Z,30.87
2022-08-17T13:35:40.939Z,30.86
2022-08-17T13:38:37.127Z,30.86
2022-08-17T13:41:05.893Z,30.88
2022-08-17T13:43:44.534Z,30.90
2022-08-17T13:46:28.517Z,30.91
2022-08-17T13:49:04.254Z,30.95
2022-08-17T13:51:35.226Z,30.96
2022-08-17T13:54:06.290Z,30.96
2022-08-17T13:56:55.607Z,30.95
2022-08-17T13:59:54.992Z,30.88
2022-08-17T14:02:28.370Z,30.78
2022-08-17T14:04:59.993Z,30.75
2022-08-17T14:07:33.330Z,30.71
2022-08-17T14:10:12.033Z,30.68
2022-08-17T14:12:44.371Z,30.68
2022-08-17T14:15:14.904Z,30.70
2022-08-17T14:17:42.070Z,30.70
2022-08-17T14:20:12.991Z,30.72
2022-08-17T14:22:50.576Z,30.75
2022-08-17T14:25:21.516Z,30.72
2022-08-17T14:27:52.852Z,30.66
2022-08-17T14:30:27.003Z,30.60
2022-08-17T14:32:58.145Z,30.56
2022-08-17T14:35:30.337Z,30.63
2022-08-17T14:38:05.740Z,30.79
2022-08-17T14:40:34.222Z,30.87
2022-08-17T14:43:11.058Z,30.86
2022-08-17T14:45:41.925Z,30.86
2022-08-17T14:48:11.008Z,30.92
2022-08-17T14:50:41.642Z,30.98
2022-08-17T14:53:13.077Z,31.05
2022-08-17T14:55:42.009Z,31.11
2022-08-17T14:58:09.349Z,31.15
2022-08-17T15:00:40.959Z,31.13
2022-08-17T15:03:08.025Z,31.00
2022-08-17T15:05:36.811Z,30.90
2022-08-17T15:08:05.708Z,30.84
2022-08-17T15:10:37.121Z,30.80
2022-08-17T15:13:21.881Z,30.80
2022-08-17T15:15:49.455Z,30.86
2022-08-17T15:18:16.980Z,30.92
2022-08-17T15:20:44.750Z,31.01
2022-08-17T15:23:14.960Z,31.04
2022-08-17T15:25:43.285Z,31.04
2022-08-17T15:28:22.316Z,30.98
2022-08-17T15:30:56.957Z,30.89
2022-08-17T15:33:34.930Z,30.78
2022-08-17T15:36:06.492Z,30.67
2022-08-17T15:38:38.979Z,30.57
2022-08-17T15:41:14.634Z,30.50
2022-08-17T15:43:42.443Z,30.45
2022-08-17T15:46:14.002Z,30.43
2022-08-17T15:48:42.899Z,30.40
2022-08-17T15:51:21.181Z,30.38
2022-08-17T15:53:51.419Z,30.37
2022-08-17T15:56:19.462Z,30.38
2022-08-17T15:58:48.592Z,30.36
2022-08-17T16:01:41.876Z,30.35
2022-08-17T16:04:29.701Z,30.34
2022-08-17T16:07:02.016Z,30.36
2022-08-17T16:09:31.022Z,30.38
2022-08-17T16:12:17.926Z,30.38
2022-08-17T16:14:46.608Z,30.39
2022-08-17T16:17:38.286Z,30.41
2022-08-17T16:20:04.745Z,30.40
2022-08-17T16:22:38.197Z,30.37
2022-08-17T16:25:09.955Z,30.33
2022-08-17T16:27:38.845Z,30.31
2022-08-17T16:30:07.215Z,30.32
2022-08-17T16:32:35.755Z,30.28
2022-08-17T16:35:11.714Z,30.26
2022-08-17T16:37:39.973Z,30.23
2022-08-17T16:40:35.761Z,30.21
2022-08-17T16:43:10.983Z,30.20
2022-08-17T16:45:39.881Z,30.16
2022-08-17T16:48:11.418Z,30.09
2022-08-17T16:50:59.968Z,30.01
2022-08-17T16:53:31.643Z,29.93
2022-08-17T16:55:58.724Z,29.87
2022-08-17T16:58:28.704Z,29.82
2022-08-17T17:00:59.034Z,29.75
2022-08-17T17:03:30.083Z,29.70
2022-08-17T17:06:22.146Z,29.65
2022-08-17T17:09:03.177Z,29.63
2022-08-17T17:11:47.216Z,29.60
2022-08-17T17:14:24.122Z,29.56
2022-08-17T17:17:13.553Z,29.51
2022-08-17T17:19:49.225Z,29.46
2022-08-17T17:22:47.689Z,29.41
2022-08-17T17:25:26.903Z,29.35
2022-08-17T17:28:10.510Z,29.27
2022-08-17T17:31:23.575Z,29.19
2022-08-17T17:33:55.161Z,29.08
2022-08-17T17:37:05.800Z,28.99
2022-08-17T17:39:51.073Z,28.90
2022-08-17T17:42:28.176Z,28.83
2022-08-17T17:50:21.205Z,28.64
2022-08-17T17:53:17.781Z,28.56
2022-08-17T17:55:59.376Z,28.48
2022-08-17T17:58:31.769Z,28.41
2022-08-17T18:01:22.495Z,28.31
2022-08-17T18:04:17.708Z,28.18
2022-08-17T18:07:09.972Z,28.05
2022-08-17T18:10:03.044Z,27.84
2022-08-17T18:12:45.328Z,27.59
2022-08-17T18:15:39.393Z,27.33
2022-08-17T18:18:16.920Z,27.04
2022-08-17T18:20:55.769Z,26.82
2022-08-17T18:23:28.658Z,26.64
2022-08-17T18:26:01.950Z,26.49
2022-08-17T18:28:38.545Z,26.36
2022-08-17T18:31:22.961Z,26.22
2022-08-17T18:37:36.115Z,25.90
2022-08-17T18:41:03.156Z,25.77
2022-08-17T18:43:53.356Z,25.62
2022-08-17T18:46:40.265Z,25.53
2022-08-17T18:49:33.427Z,25.45
2022-08-17T18:52:29.975Z,25.43
2022-08-17T18:54:57.539Z,25.44
2022-08-17T18:57:32.524Z,25.51
2022-08-17T19:00:01.506Z,25.65
2022-08-17T19:02:44.620Z,25.77
2022-08-17T19:05:40.902Z,25.97
2022-08-17T19:08:29.075Z,26.16
2022-08-17T19:11:09.779Z,26.26
2022-08-17T19:13:51.802Z,26.28
2022-08-17T19:16:32.033Z,26.28
2022-08-17T19:19:38.383Z,26.31
2022-08-17T19:23:02.694Z,26.33
2022-08-17T19:25:45.059Z,26.28
2022-08-17T19:28:28.212Z,26.25
2022-08-17T19:31:31.517Z,26.20
2022-08-17T19:34:48.978Z,26.11
2022-08-17T19:38:18.863Z,26.13
2022-08-17T19:41:12.973Z,26.27
2022-08-17T19:44:09.952Z,26.40
2022-08-17T19:48:00.528Z,26.46
2022-08-17T19:50:55.451Z,26.52
2022-08-17T19:54:03.684Z,26.57
2022-08-17T19:57:15.860Z,26.59
2022-08-17T19:59:51.944Z,26.57
2022-08-17T20:02:41.294Z,26.50
2022-08-17T20:05:15.172Z,26.38
2022-08-17T20:07:57.350Z,26.19
2022-08-17T20:11:20.738Z,26.01
2022-08-17T20:14:34.648Z,25.90
2022-08-17T20:18:11.909Z,25.73
2022-08-17T20:21:19.953Z,25.62
2022-08-17T20:24:52.280Z,25.63
2022-08-17T20:28:22.537Z,25.59
2022-08-17T20:31:03.063Z,25.57
2022-08-17T20:33:50.168Z,25.46
2022-08-17T20:37:07.308Z,25.31
2022-08-17T20:40:31.473Z,25.16
2022-08-17T20:43:39.476Z,24.97
2022-08-17T20:46:38.288Z,24.78
2022-08-17T20:50:36.444Z,24.63
2022-08-17T20:53:50.550Z,24.49
2022-08-17T20:56:49.083Z,24.35
2022-08-17T20:59:41.249Z,24.23
2022-08-17T21:03:18.632Z,24.11
2022-08-17T21:06:30.388Z,23.93
2022-08-17T21:09:17.605Z,23.82
2022-08-17T21:12:12.552Z,23.71
2022-08-17T21:15:24.582Z,23.60
2022-08-17T21:18:29.760Z,23.49
2022-08-17T21:21:37.477Z,23.43
2022-08-17T21:24:37.105Z,23.43
2022-08-17T21:27:45.972Z,23.52
2022-08-17T21:30:27.842Z,23.59
2022-08-17T21:33:36.940Z,23.68
2022-08-17T21:36:15.618Z,23.78
2022-08-17T21:39:10.441Z,23.82
2022-08-17T21:42:01.023Z,23.90
2022-08-17T21:45:23.241Z,23.96
2022-08-17T21:48:22.483Z,23.92
2022-08-17T21:51:28.533Z,23.84
2022-08-17T21:54:23.587Z,23.77
2022-08-17T21:56:51.496Z,23.81
2022-08-17T21:59:32.756Z,23.85
2022-08-17T22:02:05.574Z,23.89
2022-08-17T22:04:36.406Z,23.84
2022-08-17T22:07:05.190Z,23.79
2022-08-17T22:09:45.610Z,23.80
2022-08-17T22:12:17.173Z,23.82
2022-08-17T22:15:00.004Z,23.79
2022-08-17T22:17:35.965Z,23.74
2022-08-17T22:20:18.791Z,23.70
2022-08-17T22:23:04.478Z,23.72
2022-08-17T22:25:35.677Z,23.70
2022-08-17T22:28:11.009Z,23.70
2022-08-17T22:31:01.306Z,23.70
2022-08-17T22:33:43.978Z,23.70
2022-08-17T22:36:24.855Z,23.79
2022-08-17T22:39:16.942Z,23.86
2022-08-17T22:41:47.852Z,23.98
2022-08-17T22:44:31.478Z,24.12
2022-08-17T22:47:11.105Z,24.24
2022-08-17T22:49:53.922Z,24.21
2022-08-17T22:53:16.720Z,24.12
2022-08-17T22:56:23.396Z,24.04
2022-08-17T22:59:14.947Z,23.94
2022-08-17T23:01:44.954Z,23.89
2022-08-17T23:04:29.800Z,23.84
2022-08-17T23:06:57.045Z,23.82
2022-08-17T23:09:23.777Z,23.80
2022-08-17T23:11:58.045Z,23.79
2022-08-17T23:14:30.968Z,23.77
2022-08-17T23:17:00.433Z,23.64
2022-08-17T23:19:33.423Z,23.56
2022-08-17T23:22:04.947Z,23.58
2022-08-17T23:24:38.903Z,23.64
2022-08-17T23:27:07.391Z,23.63
2022-08-17T23:29:38.932Z,23.63
2022-08-17T23:32:07.689Z,23.61
2022-08-17T23:34:39.741Z,23.58
2022-08-17T23:37:11.067Z,23.59
2022-08-17T23:39:46.702Z,23.65
2022-08-17T23:42:21.197Z,23.73
2022-08-17T23:44:49.245Z,23.80
2022-08-17T23:47:16.832Z,23.80
2022-08-17T23:49:44.198Z,23.83
2022-08-17T23:52:24.186Z,23.87
2022-08-17T23:54:54.927Z,23.88
2022-08-17T23:57:33.054Z,23.89
